createdAt,value
2023-04-07T05:31:22.580Z,5.53
2023-04-07T05:33:50.342Z,6.03
2023-04-07T05:36:17.960Z,4.93
2023-04-07T05:38:46.718Z,4.65
2023-04-07T05:41:13.740Z,5.25
2023-04-07T05:43:41.028Z,5.43
2023-04-07T05:46:08.329Z,4.65
2023-04-07T05:48:36.019Z,5.18
2023-04-07T05:51:03.230Z,6.60
2023-04-07T05:53:30.418Z,5.70
2023-04-07T05:55:57.560Z,5.15
2023-04-07T05:58:24.746Z,4.85
2023-04-07T06:00:52.112Z,6.05
2023-04-07T06:03:19.351Z,5.25
2023-04-07T06:05:47.265Z,6.18
2023-04-07T06:08:14.449Z,5.78
2023-04-07T06:10:41.732Z,4.95
2023-04-07T06:13:09.258Z,4.88
2023-04-07T06:15:36.438Z,3.88
2023-04-07T06:18:03.697Z,4.03
2023-04-07T06:20:31.234Z,3.92
2023-04-07T06:22:58.395Z,4.03
2023-04-07T06:25:25.471Z,4.65
2023-04-07T06:27:54.185Z,4.38
2023-04-07T06:30:21.384Z,3.97
2023-04-07T06:32:48.604Z,4.53
2023-04-07T06:35:16.157Z,4.55
2023-04-07T06:37:43.282Z,5.15
2023-04-07T06:40:10.537Z,4.40
2023-04-07T06:42:37.995Z,4.75
2023-04-07T06:45:05.836Z,4.22
2023-04-07T06:47:33.135Z,4.30
2023-04-07T06:50:00.378Z,3.35
2023-04-07T06:52:27.497Z,3.50
2023-04-07T06:54:54.608Z,3.45
2023-04-07T06:57:22.077Z,3.17
2023-04-07T06:59:49.198Z,3.95
2023-04-07T07:02:16.676Z,3.53
2023-04-07T07:04:43.956Z,3.35
2023-04-07T07:07:14.127Z,3.42
2023-04-07T07:09:41.301Z,3.72
2023-04-07T07:12:08.421Z,3.33
2023-04-07T07:14:35.581Z,3.45
2023-04-07T07:17:02.766Z,3.50
2023-04-07T07:19:30.117Z,2.88
2023-04-07T07:21:57.282Z,2.95
2023-04-07T07:24:24.412Z,2.75
2023-04-07T07:26:51.520Z,2.95
2023-04-07T07:29:18.637Z,2.47
2023-04-07T07:31:45.909Z,3.17
2023-04-07T07:34:13.013Z,2.50
2023-04-07T07:36:40.231Z,2.85
2023-04-07T07:39:07.924Z,2.70
2023-04-07T07:41:35.730Z,2.33
2023-04-07T07:44:03.008Z,2.47
2023-04-07T07:46:30.171Z,1.67
2023-04-07T07:48:57.326Z,1.75
2023-04-07T07:51:24.509Z,1.67
2023-04-07T07:53:52.641Z,1.15
2023-04-07T07:56:19.984Z,0.93
2023-04-07T07:58:47.360Z,2.20
2023-04-07T08:01:14.489Z,1.02
2023-04-07T08:03:42.123Z,1.13
2023-04-07T08:06:09.605Z,0.90
2023-04-07T08:08:37.027Z,0.90
2023-04-07T08:11:04.590Z,1.20
2023-04-07T08:13:31.821Z,1.20
2023-04-07T08:15:59.009Z,1.20
2023-04-07T08:18:26.215Z,2.25
2023-04-07T08:20:53.778Z,1.60
2023-04-07T08:23:21.049Z,1.50
2023-04-07T08:25:48.196Z,2.42
2023-04-07T08:28:15.992Z,1.60
2023-04-07T08:30:43.187Z,2.08
2023-04-07T08:33:10.699Z,1.38
2023-04-07T08:35:37.863Z,1.40
2023-04-07T08:38:05.772Z,1.38
2023-04-07T08:40:33.670Z,1.63
2023-04-07T08:43:06.209Z,1.08
2023-04-07T08:45:34.490Z,1.25
2023-04-07T08:48:08.444Z,0.90
2023-04-07T08:50:36.359Z,1.00
2023-04-07T08:53:08.208Z,1.15
2023-04-07T08:55:36.532Z,0.88
2023-04-07T08:58:04.253Z,1.30
2023-04-07T09:00:31.875Z,1.48
2023-04-07T09:03:00.991Z,1.08
2023-04-07T09:05:29.693Z,0.93
2023-04-07T09:07:56.830Z,1.00
2023-04-07T09:10:23.982Z,0.75
2023-04-07T09:12:51.336Z,0.63
2023-04-07T09:15:19.112Z,0.75
2023-04-07T09:17:46.316Z,0.80
2023-04-07T09:20:13.523Z,1.30
2023-04-07T09:22:47.402Z,1.13
2023-04-07T09:25:28.160Z,1.35
2023-04-07T09:28:00.514Z,0.98
2023-04-07T09:30:29.588Z,1.02
2023-04-07T09:32:58.063Z,1.27
2023-04-07T09:35:27.601Z,1.35
2023-04-07T09:38:09.140Z,1.48
2023-04-07T09:40:37.529Z,1.42
2023-04-07T09:43:05.900Z,1.45
2023-04-07T09:45:36.846Z,1.33
2023-04-07T09:48:21.629Z,1.55
2023-04-07T09:50:52.013Z,1.92
2023-04-07T09:53:20.188Z,1.67
2023-04-07T09:55:48.736Z,1.17
2023-04-07T09:58:16.998Z,1.17
2023-04-07T10:00:45.628Z,0.85
2023-04-07T10:03:13.450Z,1.27
2023-04-07T10:05:41.311Z,1.35
2023-04-07T10:08:09.975Z,1.52
2023-04-07T10:10:42.807Z,1.15
2023-04-07T10:15:37.318Z,1.08
2023-04-07T10:18:07.335Z,1.30
2023-04-07T10:20:35.186Z,1.20
2023-04-07T10:23:11.922Z,1.52
2023-04-07T10:25:40.391Z,1.27
2023-04-07T10:28:12.647Z,1.50
2023-04-07T10:30:40.674Z,1.80
2023-04-07T10:33:07.990Z,1.23
2023-04-07T10:36:03.188Z,0.90
2023-04-07T10:38:31.725Z,1.80
2023-04-07T10:40:58.894Z,2.30
2023-04-07T10:43:42.178Z,1.85
2023-04-07T10:46:09.492Z,1.73
2023-04-07T10:48:36.754Z,2.10
2023-04-07T10:51:07.308Z,1.83
2023-04-07T10:53:34.999Z,2.33
2023-04-07T10:56:02.741Z,1.98
2023-04-07T10:58:31.468Z,1.67
2023-04-07T11:01:01.558Z,1.95
2023-04-07T11:03:30.773Z,2.33
2023-04-07T11:06:05.945Z,1.85
2023-04-07T11:08:38.311Z,1.42
2023-04-07T11:11:09.242Z,2.25
2023-04-07T11:13:47.440Z,1.42
2023-04-07T11:16:19.607Z,1.52
2023-04-07T11:18:48.031Z,1.52
2023-04-07T11:21:19.318Z,1.73
2023-04-07T11:23:47.655Z,1.25
2023-04-07T11:26:16.371Z,2.40
2023-04-07T11:29:01.984Z,1.58
2023-04-07T11:31:31.460Z,1.63
2023-04-07T11:34:02.123Z,1.38
2023-04-07T11:36:33.207Z,1.15
2023-04-07T11:39:02.201Z,1.75
2023-04-07T11:41:32.851Z,1.60
2023-04-07T11:44:11.682Z,1.38
2023-04-07T11:47:03.593Z,1.80
2023-04-07T11:49:31.852Z,1.52
2023-04-07T11:52:08.859Z,1.80
2023-04-07T11:54:47.239Z,1.65
2023-04-07T11:57:14.993Z,2.63
2023-04-07T11:59:42.335Z,1.70
2023-04-07T12:02:09.941Z,1.42
2023-04-07T12:04:40.138Z,1.35
2023-04-07T12:07:09.309Z,1.52
2023-04-07T12:09:37.642Z,1.58
2023-04-07T12:12:07.506Z,1.58
2023-04-07T12:14:35.570Z,1.83
2023-04-07T12:17:03.875Z,1.38
2023-04-07T12:19:34.844Z,1.55
2023-04-07T12:22:02.121Z,2.20
2023-04-07T12:24:29.225Z,1.77
2023-04-07T12:26:56.592Z,2.78
2023-04-07T12:29:24.109Z,1.55
2023-04-07T12:31:51.573Z,2.53
2023-04-07T12:34:19.165Z,2.25
2023-04-07T12:36:46.326Z,2.15
2023-04-07T12:39:13.802Z,1.73
2023-04-07T12:41:41.990Z,1.40
2023-04-07T12:44:09.703Z,1.40
2023-04-07T12:46:36.839Z,1.63
2023-04-07T12:49:04.031Z,2.05
2023-04-07T12:51:33.403Z,1.70
2023-04-07T12:54:00.895Z,1.95
2023-04-07T12:56:28.721Z,1.80
2023-04-07T12:58:56.274Z,1.83
2023-04-07T13:01:23.462Z,2.00
2023-04-07T13:03:51.426Z,2.10
2023-04-07T13:06:19.244Z,1.73
2023-04-07T13:08:46.438Z,2.17
2023-04-07T13:11:13.720Z,1.92
2023-04-07T13:13:40.831Z,2.35
2023-04-07T13:16:08.371Z,2.30
2023-04-07T13:18:36.602Z,2.15
2023-04-07T13:23:42.923Z,2.00
2023-04-07T13:26:11.551Z,2.40
2023-04-07T13:28:39.072Z,2.55
2023-04-07T13:31:06.548Z,2.40
2023-04-07T13:33:34.892Z,2.42
2023-04-07T13:36:02.059Z,2.50
2023-04-07T13:38:29.322Z,2.13
2023-04-07T13:40:56.467Z,2.40
2023-04-07T13:43:23.624Z,3.40
2023-04-07T13:45:50.897Z,2.72
2023-04-07T13:48:18.280Z,2.33
2023-04-07T13:50:45.671Z,2.40
2023-04-07T13:53:12.872Z,2.50
2023-04-07T13:55:40.034Z,2.80
2023-04-07T13:58:07.307Z,2.25
2023-04-07T14:00:35.783Z,2.95
2023-04-07T14:03:04.354Z,1.90
2023-04-07T14:05:31.785Z,2.55
2023-04-07T14:07:58.923Z,2.55
2023-04-07T14:10:26.236Z,2.47
2023-04-07T14:12:53.341Z,2.17
2023-04-07T14:15:20.721Z,2.88
2023-04-07T14:17:47.895Z,2.40
2023-04-07T14:20:15.055Z,2.72
2023-04-07T14:22:42.586Z,2.83
2023-04-07T14:25:10.411Z,2.53
2023-04-07T14:27:37.781Z,2.30
2023-04-07T14:30:05.548Z,2.20
2023-04-07T14:32:34.336Z,1.95
2023-04-07T14:35:01.936Z,1.90
2023-04-07T14:37:29.563Z,1.67
2023-04-07T14:42:29.642Z,1.40
2023-04-07T14:44:57.246Z,1.67
2023-04-07T14:47:24.442Z,1.73
2023-04-07T14:49:53.526Z,1.38
2023-04-07T14:52:24.611Z,1.23
2023-04-07T14:54:51.756Z,1.48
2023-04-07T14:57:18.973Z,1.00
2023-04-07T14:59:47.082Z,1.35
2023-04-07T15:02:14.324Z,0.90
2023-04-07T15:04:41.922Z,1.67
2023-04-07T15:07:09.213Z,0.95
2023-04-07T15:09:36.349Z,1.60
2023-04-07T15:12:05.078Z,1.77
2023-04-07T15:14:32.242Z,1.20
2023-04-07T15:16:59.395Z,1.02
2023-04-07T15:19:26.493Z,1.23
2023-04-07T15:21:53.640Z,1.58
2023-04-07T15:24:22.163Z,1.50
2023-04-07T15:26:49.690Z,1.33
2023-04-07T15:29:16.845Z,1.40
2023-04-07T15:31:44.070Z,1.63
2023-04-07T15:34:12.739Z,1.60
2023-04-07T15:36:40.329Z,2.45
2023-04-07T15:39:07.483Z,2.83
2023-04-07T15:41:34.675Z,1.88
2023-04-07T15:44:03.303Z,2.35
2023-04-07T15:46:32.337Z,1.60
2023-04-07T15:49:00.126Z,2.42
2023-04-07T15:51:27.675Z,1.80
2023-04-07T15:53:54.873Z,1.50
2023-04-07T15:56:24.597Z,1.73
2023-04-07T15:58:52.356Z,1.70
